Time;durP1;ratioP1;P1;durP2;ratioP2;P2;SDS_P1;SDS_P2;PMS_P1;PMS_P2;Temp;Humidity;BMP_temperature;BMP_pressure;BME280_temperature;BME280_humidity;BME280_pressure;Samples;Min_cycle;Max_cycle;Signal;HPM_P1;HPM_P2
2021/09/19 00:00:08;;;;;;;5.70;5.20;;;13.00;99.90;;;;;;506703;234;28424;-70
2021/09/19 00:02:10;;;;;;;5.47;4.93;;;13.00;99.90;;;;;;506675;234;28395;-70
2021/09/19 00:04:11;;;;;;;5.87;5.30;;;12.90;99.90;;;;;;506747;234;28652;-70
2021/09/19 00:06:12;;;;;;;5.77;5.10;;;12.90;99.90;;;;;;506727;234;28421;-70
2021/09/19 00:08:14;;;;;;;5.20;4.80;;;12.90;99.90;;;;;;506736;234;28600;-70
2021/09/19 00:10:15;;;;;;;7.00;5.53;;;12.80;99.90;;;;;;506669;234;28204;-70
2021/09/19 00:12:16;;;;;;;6.27;5.57;;;12.90;99.90;;;;;;506706;234;28201;-70
2021/09/19 00:14:17;;;;;;;6.77;5.93;;;12.90;99.90;;;;;;506536;234;28620;-70
2021/09/19 00:16:18;;;;;;;6.73;5.93;;;12.90;99.90;;;;;;506741;234;28169;-70
2021/09/19 00:18:20;;;;;;;8.30;6.50;;;12.90;99.90;;;;;;506699;234;28400;-70
2021/09/19 00:20:21;;;;;;;5.80;5.17;;;12.90;99.90;;;;;;506707;234;28463;-70
2021/09/19 00:22:22;;;;;;;5.93;5.33;;;12.80;99.90;;;;;;506686;234;28401;-70
2021/09/19 00:24:23;;;;;;;6.23;5.63;;;12.90;99.90;;;;;;506730;234;28866;-70
2021/09/19 00:26:25;;;;;;;5.63;5.03;;;12.90;99.90;;;;;;506737;234;28761;-69
2021/09/19 00:28:26;;;;;;;5.63;4.93;;;12.90;99.90;;;;;;506724;234;28835;-70
2021/09/19 00:30:27;;;;;;;6.20;5.60;;;12.90;99.90;;;;;;506700;234;28962;-70
2021/09/19 00:32:28;;;;;;;5.43;4.80;;;12.90;99.90;;;;;;506684;234;28176;-70
2021/09/19 00:34:30;;;;;;;5.70;5.20;;;12.80;99.90;;;;;;506746;234;28303;-70
2021/09/19 00:36:31;;;;;;;5.40;4.90;;;12.80;99.90;;;;;;506713;234;28348;-70
2021/09/19 00:38:32;;;;;;;5.20;4.70;;;12.80;99.90;;;;;;506707;234;28299;-70
2021/09/19 00:40:33;;;;;;;5.37;4.87;;;12.80;99.90;;;;;;506706;234;28332;-70
2021/09/19 00:42:35;;;;;;;5.70;5.10;;;12.80;99.90;;;;;;506678;234;28353;-70
2021/09/19 00:44:36;;;;;;;5.30;4.80;;;12.80;99.90;;;;;;506753;234;28390;-70
2021/09/19 00:46:37;;;;;;;5.40;4.90;;;12.80;99.90;;;;;;506698;234;28407;-70
2021/09/19 00:48:38;;;;;;;6.93;5.23;;;12.80;99.90;;;;;;506695;234;28375;-70
2021/09/19 00:50:40;;;;;;;5.80;5.17;;;12.80;99.90;;;;;;506678;234;28565;-70
2021/09/19 00:52:41;;;;;;;5.30;4.77;;;12.80;99.90;;;;;;506682;234;28673;-70
2021/09/19 00:54:42;;;;;;;5.90;5.23;;;12.80;99.90;;;;;;506656;234;28829;-70
2021/09/19 00:56:43;;;;;;;5.53;4.77;;;12.70;99.90;;;;;;506704;234;28205;-70
2021/09/19 00:58:45;;;;;;;4.77;4.33;;;12.80;99.90;;;;;;506708;234;28390;-70
2021/09/19 01:00:49;;;;;;;4.90;4.20;;;12.70;99.90;;;;;;506638;234;28227;-70
2021/09/19 01:02:47;;;;;;;5.07;4.60;;;12.70;99.90;;;;;;506396;234;28487;-70
2021/09/19 01:04:48;;;;;;;5.20;4.53;;;12.70;99.90;;;;;;506743;234;28187;-70
2021/09/19 01:06:50;;;;;;;4.40;3.90;;;12.70;99.90;;;;;;506700;234;28240;-70
2021/09/19 01:08:51;;;;;;;4.80;4.40;;;12.70;99.90;;;;;;506695;234;28159;-70
2021/09/19 01:10:52;;;;;;;5.00;4.40;;;12.70;99.90;;;;;;506677;234;28226;-69
2021/09/19 01:12:53;;;;;;;6.53;4.30;;;12.60;99.90;;;;;;506705;234;28338;-70
2021/09/19 01:14:55;;;;;;;4.50;4.10;;;12.60;99.90;;;;;;506724;234;28923;-70
2021/09/19 01:16:56;;;;;;;4.57;4.10;;;12.60;99.90;;;;;;506685;234;28758;-70
2021/09/19 01:18:57;;;;;;;5.57;4.10;;;12.60;99.90;;;;;;506714;234;28836;-70
2021/09/19 01:20:58;;;;;;;4.40;4.07;;;12.60;99.90;;;;;;506669;234;28106;-70
2021/09/19 01:23:00;;;;;;;5.20;4.40;;;12.60;99.90;;;;;;506691;235;28138;-70
2021/09/19 01:25:01;;;;;;;4.20;3.80;;;12.50;99.90;;;;;;506753;235;28041;-70
2021/09/19 01:27:02;;;;;;;6.03;4.30;;;12.50;99.90;;;;;;506715;234;28124;-70
2021/09/19 01:29:03;;;;;;;4.77;4.20;;;12.50;99.90;;;;;;506723;234;28050;-70
2021/09/19 01:31:05;;;;;;;4.60;4.20;;;12.50;99.90;;;;;;506712;234;28246;-69
2021/09/19 01:33:06;;;;;;;4.90;4.50;;;12.50;99.90;;;;;;506753;234;28130;-70
2021/09/19 01:35:08;;;;;;;4.00;3.27;;;12.60;99.90;;;;;;506725;234;28503;-70
2021/09/19 01:37:09;;;;;;;3.47;3.17;;;12.50;99.90;;;;;;506757;234;28210;-70
2021/09/19 01:39:11;;;;;;;3.93;3.57;;;12.50;99.90;;;;;;506728;234;28114;-70
2021/09/19 01:41:12;;;;;;;3.87;3.47;;;12.50;99.90;;;;;;506712;234;28809;-70
2021/09/19 01:43:13;;;;;;;4.10;3.77;;;12.50;99.90;;;;;;506751;234;28633;-70
2021/09/19 01:45:14;;;;;;;4.33;4.03;;;12.50;99.90;;;;;;506758;234;28557;-70
2021/09/19 01:47:16;;;;;;;4.53;4.13;;;12.50;99.90;;;;;;506718;234;28524;-70
2021/09/19 01:49:17;;;;;;;3.83;3.47;;;12.50;99.90;;;;;;506710;234;28035;-70
2021/09/19 01:51:18;;;;;;;4.30;3.60;;;12.40;99.90;;;;;;506694;234;28167;-70
2021/09/19 01:53:19;;;;;;;3.60;3.30;;;12.40;99.90;;;;;;506739;234;28144;-70
2021/09/19 01:55:21;;;;;;;6.40;4.77;;;12.40;99.90;;;;;;506737;234;28231;-70
2021/09/19 01:57:22;;;;;;;3.90;3.60;;;12.40;99.90;;;;;;506735;234;28267;-70
2021/09/19 01:59:23;;;;;;;3.87;3.57;;;12.40;99.90;;;;;;506727;234;28085;-70
2021/09/19 02:01:24;;;;;;;4.40;4.00;;;12.40;99.90;;;;;;506704;234;28426;-69
2021/09/19 02:03:27;;;;;;;4.03;3.63;;;12.30;99.90;;;;;;506747;234;28483;-70
2021/09/19 02:05:28;;;;;;;4.00;3.70;;;12.40;99.90;;;;;;506735;234;28396;-70
2021/09/19 02:07:29;;;;;;;3.77;3.47;;;12.30;99.90;;;;;;506687;234;28331;-70
2021/09/19 02:09:31;;;;;;;4.03;3.70;;;12.30;99.90;;;;;;506699;234;28734;-70
2021/09/19 02:11:32;;;;;;;5.67;3.43;;;12.30;99.90;;;;;;506716;234;28903;-70
2021/09/19 02:13:33;;;;;;;4.03;3.67;;;12.30;99.90;;;;;;506753;234;28780;-70
2021/09/19 02:15:34;;;;;;;4.00;3.70;;;12.30;99.90;;;;;;506769;234;28190;-69
2021/09/19 02:17:36;;;;;;;4.20;3.80;;;12.30;99.90;;;;;;506754;234;28078;-70
2021/09/19 02:19:37;;;;;;;4.70;4.30;;;12.20;99.90;;;;;;506720;234;28535;-70
2021/09/19 02:21:38;;;;;;;5.53;3.30;;;12.20;99.90;;;;;;506667;234;28361;-70
2021/09/19 02:23:39;;;;;;;4.70;4.10;;;12.20;99.90;;;;;;506753;233;28172;-70
2021/09/19 02:25:41;;;;;;;4.07;3.77;;;12.20;99.90;;;;;;506737;234;28195;-70
2021/09/19 02:27:42;;;;;;;3.97;3.67;;;12.20;99.90;;;;;;506710;234;28131;-70
2021/09/19 02:29:43;;;;;;;4.50;3.63;;;12.20;99.90;;;;;;506725;234;28142;-70
2021/09/19 02:31:44;;;;;;;4.00;3.63;;;12.20;99.90;;;;;;506724;234;28760;-70
2021/09/19 02:33:46;;;;;;;3.80;3.50;;;12.10;99.90;;;;;;506745;234;28473;-70
2021/09/19 02:35:47;;;;;;;3.53;3.20;;;12.10;99.90;;;;;;506744;234;29264;-70
2021/09/19 02:37:48;;;;;;;3.27;3.07;;;12.10;99.90;;;;;;506747;234;28622;-70
2021/09/19 02:39:49;;;;;;;3.77;3.47;;;12.10;99.90;;;;;;506718;234;28159;-70
2021/09/19 02:41:51;;;;;;;4.13;3.73;;;12.10;99.90;;;;;;506640;234;28218;-70
2021/09/19 02:43:52;;;;;;;3.50;3.20;;;12.10;99.90;;;;;;506561;234;28055;-69
2021/09/19 02:45:53;;;;;;;3.70;3.40;;;12.10;99.90;;;;;;506470;234;28066;-70
2021/09/19 02:47:54;;;;;;;3.60;3.30;;;12.10;99.90;;;;;;506482;234;27999;-70
2021/09/19 02:49:56;;;;;;;4.67;3.80;;;12.00;99.90;;;;;;506655;234;28192;-70
2021/09/19 02:51:57;;;;;;;4.87;3.50;;;12.00;99.90;;;;;;506778;234;28332;-70
2021/09/19 02:53:58;;;;;;;4.27;3.40;;;12.00;99.90;;;;;;506728;234;28219;-70
2021/09/19 02:55:59;;;;;;;3.50;3.30;;;12.00;99.90;;;;;;506761;234;28145;-70
2021/09/19 02:58:01;;;;;;;3.20;2.90;;;11.90;99.90;;;;;;506757;234;28467;-70
2021/09/19 03:00:02;;;;;;;3.50;3.17;;;11.90;99.90;;;;;;506743;234;28591;-70
2021/09/19 03:02:06;;;;;;;3.20;2.90;;;11.90;99.90;;;;;;506766;234;28616;-70
2021/09/19 03:04:04;;;;;;;3.40;3.13;;;11.90;99.90;;;;;;506517;234;28449;-70
2021/09/19 03:06:06;;;;;;;3.70;3.40;;;11.90;99.90;;;;;;506717;234;28129;-70
2021/09/19 03:08:07;;;;;;;3.67;3.37;;;11.90;99.90;;;;;;506709;234;28439;-69
2021/09/19 03:10:08;;;;;;;4.07;3.77;;;11.90;99.90;;;;;;506717;234;28132;-70
2021/09/19 03:12:09;;;;;;;3.13;2.83;;;11.90;99.90;;;;;;506754;234;28342;-70
2021/09/19 03:14:11;;;;;;;3.83;3.53;;;11.90;99.90;;;;;;506771;234;28234;-70
2021/09/19 03:16:12;;;;;;;3.17;2.87;;;11.90;99.90;;;;;;506766;234;28380;-70
2021/09/19 03:18:13;;;;;;;3.30;3.10;;;11.80;99.90;;;;;;506694;234;28130;-70
2021/09/19 03:20:14;;;;;;;3.20;3.00;;;11.80;99.90;;;;;;506696;234;28022;-69
2021/09/19 03:22:16;;;;;;;3.20;3.00;;;11.90;99.90;;;;;;506765;234;28361;-70
2021/09/19 03:24:17;;;;;;;3.10;2.80;;;11.60;99.90;;;;;;506750;234;28721;-70
2021/09/19 03:26:18;;;;;;;2.80;2.60;;;11.20;99.90;;;;;;506720;234;28618;-70
2021/09/19 03:28:19;;;;;;;3.30;3.00;;;11.00;99.90;;;;;;506689;234;29445;-69
2021/09/19 03:30:21;;;;;;;3.20;3.00;;;10.70;99.90;;;;;;506760;234;28115;-70
2021/09/19 03:32:22;;;;;;;3.10;2.90;;;10.60;99.90;;;;;;506752;234;27930;-69
2021/09/19 03:34:23;;;;;;;3.10;2.80;;;10.60;99.90;;;;;;506722;234;27762;-70
2021/09/19 03:36:24;;;;;;;3.57;3.27;;;10.60;99.90;;;;;;506736;234;28028;-70
2021/09/19 03:38:26;;;;;;;3.30;3.10;;;10.60;99.90;;;;;;506724;234;27987;-70
2021/09/19 03:40:27;;;;;;;3.73;3.43;;;10.60;99.90;;;;;;506766;234;27971;-70
2021/09/19 03:42:28;;;;;;;3.57;3.27;;;10.70;99.90;;;;;;506749;234;28032;-69
2021/09/19 03:44:29;;;;;;;3.60;3.30;;;10.70;99.90;;;;;;506720;234;27981;-70
2021/09/19 03:46:31;;;;;;;3.40;3.10;;;10.80;99.90;;;;;;506714;234;27920;-70
2021/09/19 03:48:32;;;;;;;3.40;3.10;;;10.80;99.90;;;;;;506664;234;28930;-70
2021/09/19 03:50:33;;;;;;;3.73;3.43;;;10.80;99.90;;;;;;506721;234;28327;-70
2021/09/19 03:52:34;;;;;;;3.20;3.00;;;10.90;99.90;;;;;;506725;234;28632;-70
2021/09/19 03:54:36;;;;;;;2.93;2.67;;;10.90;99.90;;;;;;506730;234;27773;-70
2021/09/19 03:56:37;;;;;;;3.17;2.97;;;10.90;99.90;;;;;;506736;234;27936;-70
2021/09/19 03:58:38;;;;;;;3.43;3.13;;;10.90;99.90;;;;;;506762;234;28090;-70
2021/09/19 04:00:39;;;;;;;3.30;3.00;;;10.90;99.90;;;;;;506743;234;27765;-70
2021/09/19 04:02:41;;;;;;;3.77;3.47;;;10.90;99.90;;;;;;506670;234;27953;-70
2021/09/19 04:04:42;;;;;;;4.20;3.83;;;10.90;99.90;;;;;;506746;234;27917;-70
2021/09/19 04:06:43;;;;;;;5.83;4.03;;;10.90;99.90;;;;;;506732;234;28040;-70
2021/09/19 04:08:44;;;;;;;4.37;4.07;;;10.90;99.90;;;;;;506736;234;27962;-70
2021/09/19 04:10:46;;;;;;;4.00;3.70;;;10.90;99.90;;;;;;506722;234;27885;-70
2021/09/19 04:12:47;;;;;;;4.07;3.77;;;10.90;99.90;;;;;;506760;234;28543;-69
2021/09/19 04:14:48;;;;;;;4.20;3.83;;;10.90;99.90;;;;;;506750;234;28295;-70
2021/09/19 04:16:49;;;;;;;4.13;3.83;;;10.90;99.90;;;;;;506717;234;28361;-70
2021/09/19 04:18:51;;;;;;;4.80;4.30;;;10.90;99.90;;;;;;506750;234;28397;-70
2021/09/19 04:20:52;;;;;;;5.10;4.30;;;11.00;99.90;;;;;;506735;234;27970;-70
2021/09/19 04:22:53;;;;;;;4.87;4.37;;;11.00;99.90;;;;;;506743;234;28041;-70
2021/09/19 04:24:54;;;;;;;4.47;3.93;;;11.00;99.90;;;;;;506717;234;27769;-69
2021/09/19 04:26:56;;;;;;;4.50;4.00;;;11.00;99.90;;;;;;506701;234;27906;-70
2021/09/19 04:28:57;;;;;;;4.17;3.77;;;11.00;99.90;;;;;;506775;234;27949;-70
2021/09/19 04:30:58;;;;;;;6.03;4.10;;;10.90;99.90;;;;;;506771;234;27639;-69
2021/09/19 04:32:59;;;;;;;5.93;4.50;;;10.90;99.90;;;;;;506730;234;27936;-69
2021/09/19 04:35:01;;;;;;;5.33;4.30;;;10.90;99.90;;;;;;506719;234;27897;-69
2021/09/19 04:37:02;;;;;;;4.73;4.23;;;10.90;99.90;;;;;;506711;234;28472;-69
2021/09/19 04:39:03;;;;;;;5.60;5.03;;;10.80;99.90;;;;;;506768;234;28404;-69
2021/09/19 04:41:04;;;;;;;5.80;5.30;;;10.80;99.90;;;;;;506727;234;28329;-69
2021/09/19 04:43:06;;;;;;;4.97;4.47;;;10.80;99.90;;;;;;506740;234;28396;-69
2021/09/19 04:45:07;;;;;;;6.00;5.00;;;10.80;99.90;;;;;;506720;234;27927;-70
2021/09/19 04:47:08;;;;;;;7.63;4.77;;;10.80;99.90;;;;;;506698;234;27828;-69
2021/09/19 04:49:09;;;;;;;6.80;5.10;;;10.80;99.90;;;;;;506723;234;27905;-69
2021/09/19 04:51:11;;;;;;;4.90;4.30;;;10.80;99.90;;;;;;506746;234;28091;-69
2021/09/19 04:53:12;;;;;;;5.30;4.73;;;10.70;99.90;;;;;;506728;234;27988;-70
2021/09/19 04:55:13;;;;;;;4.77;4.37;;;10.70;99.90;;;;;;506726;234;27905;-69
2021/09/19 04:57:14;;;;;;;4.47;4.07;;;10.70;99.90;;;;;;506695;234;28191;-68
2021/09/19 04:59:16;;;;;;;4.00;3.63;;;10.70;99.90;;;;;;506743;234;27919;-69
2021/09/19 05:01:17;;;;;;;5.20;4.20;;;10.80;99.90;;;;;;506714;234;28409;-69
2021/09/19 05:03:18;;;;;;;3.90;3.50;;;10.80;99.90;;;;;;506688;234;28380;-68
2021/09/19 05:05:19;;;;;;;3.50;3.20;;;10.80;99.90;;;;;;506689;234;28097;-69
2021/09/19 05:07:21;;;;;;;4.33;3.93;;;10.80;99.90;;;;;;506699;234;28630;-69
2021/09/19 05:09:22;;;;;;;4.20;3.90;;;10.70;99.90;;;;;;506722;234;27909;-69
2021/09/19 05:11:23;;;;;;;6.63;3.30;;;10.70;99.90;;;;;;506727;234;27872;-69
2021/09/19 05:13:24;;;;;;;3.80;3.40;;;10.70;99.90;;;;;;506730;234;27921;-69
2021/09/19 05:15:26;;;;;;;4.00;3.70;;;10.70;99.90;;;;;;506696;234;27771;-69
2021/09/19 05:17:27;;;;;;;4.20;3.80;;;10.70;99.90;;;;;;506701;234;28364;-69
2021/09/19 05:19:28;;;;;;;3.90;3.57;;;10.70;99.90;;;;;;506739;234;28025;-69
2021/09/19 05:21:29;;;;;;;4.20;3.80;;;10.60;99.90;;;;;;506719;234;27982;-69
2021/09/19 05:23:31;;;;;;;4.20;3.90;;;10.70;99.90;;;;;;506699;234;27920;-69
2021/09/19 05:25:32;;;;;;;5.43;3.77;;;10.70;99.90;;;;;;506680;234;27927;-69
2021/09/19 05:27:33;;;;;;;4.33;3.93;;;10.70;99.90;;;;;;506691;235;28173;-69
2021/09/19 05:29:34;;;;;;;5.30;4.00;;;10.70;99.90;;;;;;506674;235;28416;-69
2021/09/19 05:31:36;;;;;;;4.40;4.00;;;10.70;99.90;;;;;;506715;235;28266;-69
2021/09/19 05:33:37;;;;;;;4.60;3.50;;;10.70;99.90;;;;;;506672;235;28028;-69
2021/09/19 05:35:38;;;;;;;4.07;3.60;;;10.80;99.90;;;;;;506683;235;27893;-69
2021/09/19 05:37:39;;;;;;;3.33;3.10;;;10.80;99.90;;;;;;506694;235;27913;-69
2021/09/19 05:39:41;;;;;;;3.20;3.00;;;10.80;99.90;;;;;;506716;234;27810;-69
2021/09/19 05:41:42;;;;;;;2.90;2.70;;;10.80;99.90;;;;;;506710;235;27684;-69
2021/09/19 05:43:43;;;;;;;4.07;3.30;;;10.80;99.90;;;;;;506710;235;28033;-71
2021/09/19 05:45:44;;;;;;;2.90;2.70;;;10.80;99.90;;;;;;506698;234;27855;-69
2021/09/19 05:47:46;;;;;;;2.90;2.70;;;10.80;99.90;;;;;;506703;235;27921;-69
2021/09/19 05:49:47;;;;;;;2.80;2.60;;;10.80;99.90;;;;;;506722;234;28436;-69
2021/09/19 05:51:48;;;;;;;3.00;2.70;;;10.80;99.90;;;;;;506737;235;28428;-69
2021/09/19 05:53:49;;;;;;;2.70;2.50;;;10.80;99.90;;;;;;506714;235;28617;-70
2021/09/19 05:55:51;;;;;;;2.93;2.73;;;10.80;99.90;;;;;;506724;235;28241;-70
2021/09/19 05:57:52;;;;;;;2.70;2.50;;;10.60;99.90;;;;;;506728;235;27961;-70
2021/09/19 05:59:54;;;;;;;3.47;3.17;;;10.70;99.90;;;;;;506730;235;28008;-70
2021/09/19 06:01:54;;;;;;;2.60;2.40;;;10.60;99.90;;;;;;506728;234;27861;-70
2021/09/19 06:03:56;;;;;;;3.10;2.80;;;10.70;99.90;;;;;;506696;235;28008;-70
2021/09/19 06:05:57;;;;;;;3.50;3.20;;;10.70;99.90;;;;;;506702;235;27950;-70
2021/09/19 06:07:58;;;;;;;2.97;2.70;;;10.70;99.90;;;;;;506737;235;27955;-70
2021/09/19 06:09:59;;;;;;;3.07;2.87;;;10.70;99.90;;;;;;506681;235;28011;-70
2021/09/19 06:12:01;;;;;;;3.10;2.90;;;10.70;99.90;;;;;;506718;235;27767;-70
2021/09/19 06:14:02;;;;;;;2.87;2.67;;;10.70;99.90;;;;;;506695;234;27901;-69
2021/09/19 06:16:03;;;;;;;2.80;2.60;;;10.80;99.90;;;;;;506592;234;29118;-69
2021/09/19 06:18:04;;;;;;;3.00;2.70;;;10.80;99.90;;;;;;506762;234;28483;-70
2021/09/19 06:20:06;;;;;;;2.70;2.50;;;10.70;99.90;;;;;;506754;234;28407;-70
2021/09/19 06:22:07;;;;;;;2.70;2.50;;;10.70;99.90;;;;;;506746;234;28716;-70
2021/09/19 06:24:08;;;;;;;3.07;2.87;;;10.80;99.90;;;;;;506718;234;27855;-70
2021/09/19 06:26:09;;;;;;;2.40;2.30;;;10.80;99.90;;;;;;506709;234;27862;-69
2021/09/19 06:28:11;;;;;;;3.00;2.80;;;10.80;99.90;;;;;;506771;234;28014;-70
2021/09/19 06:30:12;;;;;;;2.30;2.20;;;10.80;99.90;;;;;;506720;234;27889;-70
2021/09/19 06:32:13;;;;;;;2.80;2.60;;;10.90;99.90;;;;;;506746;234;28036;-70
2021/09/19 06:34:14;;;;;;;4.60;2.53;;;10.90;99.90;;;;;;506728;234;27927;-70
2021/09/19 06:36:16;;;;;;;2.80;2.60;;;10.90;99.90;;;;;;506717;234;27770;-70
2021/09/19 06:38:17;;;;;;;2.37;2.17;;;11.00;99.90;;;;;;506770;234;28366;-70
2021/09/19 06:40:18;;;;;;;2.60;2.40;;;11.00;99.90;;;;;;506751;234;27717;-70
2021/09/19 06:42:20;;;;;;;2.40;2.30;;;11.00;99.90;;;;;;506714;234;28439;-69
2021/09/19 06:44:21;;;;;;;2.40;2.30;;;11.00;99.90;;;;;;506700;234;28446;-70
2021/09/19 06:46:23;;;;;;;2.13;2.03;;;11.10;99.90;;;;;;506737;234;28453;-70
2021/09/19 06:48:23;;;;;;;2.50;2.40;;;11.30;99.90;;;;;;506709;234;28115;-70
2021/09/19 06:50:25;;;;;;;2.30;2.20;;;11.40;99.90;;;;;;506710;234;28367;-70
2021/09/19 06:52:26;;;;;;;3.00;2.80;;;11.50;99.90;;;;;;506718;234;28553;-70
2021/09/19 06:54:27;;;;;;;3.43;3.20;;;11.70;99.90;;;;;;506707;234;28213;-69
2021/09/19 06:56:28;;;;;;;3.47;3.17;;;11.80;99.90;;;;;;506714;234;28074;-70
2021/09/19 06:58:30;;;;;;;3.53;2.70;;;11.90;99.90;;;;;;506737;234;28091;-70
2021/09/19 07:00:31;;;;;;;3.57;3.27;;;11.90;99.90;;;;;;506689;234;28146;-70
2021/09/19 07:02:32;;;;;;;3.17;2.97;;;12.00;99.90;;;;;;506708;234;27955;-70
2021/09/19 07:04:33;;;;;;;3.73;3.30;;;12.00;99.90;;;;;;506663;234;28079;-70
2021/09/19 07:06:35;;;;;;;3.83;2.97;;;12.10;99.90;;;;;;506692;234;27965;-70
2021/09/19 07:08:36;;;;;;;3.30;3.10;;;12.10;99.90;;;;;;506739;234;28097;-70
2021/09/19 07:10:37;;;;;;;3.03;2.83;;;12.20;99.90;;;;;;506722;234;28097;-70
2021/09/19 07:12:38;;;;;;;3.13;2.60;;;12.20;99.90;;;;;;506698;234;27978;-70
2021/09/19 07:14:40;;;;;;;3.13;2.90;;;12.30;99.90;;;;;;506664;234;28650;-70
2021/09/19 07:16:41;;;;;;;2.90;2.70;;;12.30;99.90;;;;;;506746;234;28394;-70
2021/09/19 07:18:43;;;;;;;3.73;2.90;;;12.40;99.90;;;;;;506738;234;28485;-70
2021/09/19 07:20:43;;;;;;;3.20;2.80;;;12.50;99.90;;;;;;506652;234;28918;-70
2021/09/19 07:22:46;;;;;;;2.70;2.50;;;12.60;99.90;;;;;;506718;234;28126;-70
2021/09/19 07:24:46;;;;;;;2.90;2.70;;;12.60;99.90;;;;;;506632;234;28368;-70
2021/09/19 07:26:47;;;;;;;5.20;2.30;;;12.70;99.90;;;;;;506768;234;28201;-70
2021/09/19 07:28:48;;;;;;;2.77;2.57;;;12.80;99.90;;;;;;506719;234;27992;-70
2021/09/19 07:30:51;;;;;;;3.13;2.83;;;;;;;;;;506721;234;28228;-70
2021/09/19 07:32:52;;;;;;;4.60;2.60;;;12.90;99.90;;;;;;506731;234;27445;-71
2021/09/19 07:34:53;;;;;;;6.93;2.40;;;12.90;99.90;;;;;;506752;234;28134;-70
2021/09/19 07:36:55;;;;;;;2.70;2.50;;;13.00;99.90;;;;;;506717;234;28127;-70
2021/09/19 07:38:57;;;;;;;2.60;2.40;;;13.10;99.90;;;;;;506725;234;28257;-70
2021/09/19 07:40:57;;;;;;;2.93;2.60;;;13.20;99.90;;;;;;506612;234;28790;-70
2021/09/19 07:42:59;;;;;;;2.70;2.50;;;13.30;99.90;;;;;;506692;234;28633;-72
2021/09/19 07:45:00;;;;;;;2.80;2.60;;;13.40;99.90;;;;;;506676;234;28771;-70
2021/09/19 07:47:01;;;;;;;2.40;2.20;;;13.40;99.90;;;;;;506734;234;28469;-70
2021/09/19 07:49:02;;;;;;;4.47;3.30;;;13.40;99.90;;;;;;506710;234;28402;-70
2021/09/19 07:51:03;;;;;;;2.70;2.50;;;13.50;99.90;;;;;;506647;234;28964;-70
2021/09/19 07:53:05;;;;;;;3.30;2.83;;;13.60;99.90;;;;;;506725;234;28554;-72
2021/09/19 07:55:06;;;;;;;3.43;3.13;;;13.60;99.90;;;;;;506637;234;28933;-70
2021/09/19 07:57:07;;;;;;;2.57;2.33;;;13.70;99.90;;;;;;506652;234;28456;-71
2021/09/19 07:59:08;;;;;;;2.80;2.60;;;13.60;99.90;;;;;;506710;234;28421;-70
2021/09/19 08:01:10;;;;;;;3.00;2.80;;;13.60;99.90;;;;;;506666;234;28001;-71
2021/09/19 08:03:11;;;;;;;2.80;2.60;;;13.70;99.90;;;;;;506723;234;28760;-70
2021/09/19 08:05:14;;;;;;;2.70;2.50;;;;;;;;;;506718;234;28475;-70
2021/09/19 08:07:15;;;;;;;2.97;2.77;;;13.90;99.90;;;;;;506725;234;27162;-71
2021/09/19 08:09:16;;;;;;;2.90;2.60;;;14.00;99.90;;;;;;506666;234;28082;-70
2021/09/19 08:11:17;;;;;;;3.27;2.97;;;14.10;99.90;;;;;;506706;234;28775;-70
2021/09/19 08:13:18;;;;;;;3.03;2.83;;;14.10;99.90;;;;;;506727;234;28026;-70
2021/09/19 08:15:20;;;;;;;3.00;2.60;;;14.10;99.90;;;;;;506690;234;28106;-71
2021/09/19 08:17:21;;;;;;;4.77;3.17;;;14.10;99.90;;;;;;506694;234;28189;-70
2021/09/19 08:19:23;;;;;;;2.93;2.73;;;14.10;99.90;;;;;;506666;234;28358;-71
2021/09/19 08:21:23;;;;;;;2.80;2.60;;;14.10;99.90;;;;;;506648;234;28258;-72
2021/09/19 08:23:25;;;;;;;2.80;2.60;;;14.20;99.90;;;;;;506739;234;28788;-71
2021/09/19 08:25:26;;;;;;;2.83;2.63;;;14.30;99.90;;;;;;506727;234;28639;-70
2021/09/19 08:27:27;;;;;;;2.47;2.37;;;14.30;99.90;;;;;;506674;234;28637;-69
2021/09/19 08:29:28;;;;;;;3.23;2.67;;;14.30;99.90;;;;;;506690;234;28578;-69
2021/09/19 08:31:30;;;;;;;2.70;2.50;;;14.40;99.90;;;;;;506711;234;28587;-69
2021/09/19 08:33:31;;;;;;;3.10;2.83;;;14.50;99.90;;;;;;506706;234;28158;-70
2021/09/19 08:35:32;;;;;;;2.83;2.63;;;14.60;99.90;;;;;;506701;234;28152;-72
2021/09/19 08:37:33;;;;;;;3.10;2.80;;;14.60;99.90;;;;;;506697;234;28190;-71
2021/09/19 08:39:35;;;;;;;2.87;2.67;;;14.60;99.90;;;;;;506673;234;28157;-70
2021/09/19 08:41:36;;;;;;;3.20;2.90;;;14.60;99.90;;;;;;506711;234;28267;-70
2021/09/19 08:43:37;;;;;;;3.87;2.63;;;14.60;99.90;;;;;;506697;234;28220;-71
2021/09/19 08:45:38;;;;;;;3.27;2.57;;;14.60;99.90;;;;;;506724;234;28257;-72
2021/09/19 08:47:40;;;;;;;2.80;2.60;;;14.80;99.90;;;;;;506694;234;28419;-72
2021/09/19 08:49:41;;;;;;;3.23;2.80;;;14.90;99.90;;;;;;506699;234;29279;-69
2021/09/19 08:51:42;;;;;;;3.20;2.63;;;14.90;99.90;;;;;;506723;234;28698;-72
2021/09/19 08:53:43;;;;;;;2.50;2.30;;;14.90;99.90;;;;;;506715;234;28831;-70
2021/09/19 08:55:45;;;;;;;2.90;2.60;;;14.90;99.90;;;;;;506706;234;28672;-70
2021/09/19 08:57:46;;;;;;;2.80;2.60;;;15.10;99.90;;;;;;506688;234;28371;-70
2021/09/19 08:59:47;;;;;;;2.47;2.27;;;15.10;99.90;;;;;;506722;234;28402;-69
2021/09/19 09:01:48;;;;;;;2.70;2.50;;;15.00;99.90;;;;;;506748;234;28443;-70
2021/09/19 09:03:50;;;;;;;3.20;2.40;;;15.10;99.90;;;;;;506743;234;28556;-70
2021/09/19 09:05:51;;;;;;;3.27;2.87;;;15.30;99.90;;;;;;506714;234;28422;-70
2021/09/19 09:07:52;;;;;;;2.70;2.50;;;15.30;99.90;;;;;;506697;234;28223;-69
2021/09/19 09:09:53;;;;;;;2.60;2.40;;;15.30;99.90;;;;;;506762;234;28736;-70
2021/09/19 09:11:55;;;;;;;2.37;2.17;;;15.30;99.90;;;;;;506692;234;28329;-71
2021/09/19 09:13:56;;;;;;;2.30;2.20;;;15.30;99.90;;;;;;506704;234;28461;-70
2021/09/19 09:15:57;;;;;;;2.60;2.40;;;15.40;99.90;;;;;;506693;234;28962;-72
2021/09/19 09:17:58;;;;;;;2.90;2.70;;;15.50;99.90;;;;;;506648;234;29055;-71
2021/09/19 09:20:00;;;;;;;3.03;2.83;;;15.50;99.90;;;;;;506707;234;29258;-71
2021/09/19 09:22:01;;;;;;;2.87;2.67;;;15.60;99.90;;;;;;506694;234;28333;-70
2021/09/19 09:24:03;;;;;;;3.07;2.80;;;15.60;99.90;;;;;;506673;234;28878;-73
2021/09/19 09:26:03;;;;;;;2.97;2.67;;;15.70;99.90;;;;;;506586;234;28416;-69
2021/09/19 09:28:05;;;;;;;2.83;2.63;;;15.70;99.90;;;;;;506700;234;28477;-70
2021/09/19 09:30:06;;;;;;;2.63;2.43;;;15.60;99.90;;;;;;497904;235;28795;-70
2021/09/19 09:32:11;;;;;;;2.57;2.37;;;15.60;99.90;;;;;;488824;242;28877;-71
2021/09/19 09:34:08;;;;;;;2.80;2.60;;;15.80;99.90;;;;;;496155;239;28518;-70
2021/09/19 09:36:10;;;;;;;2.73;2.53;;;15.80;99.90;;;;;;496488;239;28754;-70
2021/09/19 09:38:11;;;;;;;3.60;2.80;;;15.90;99.90;;;;;;496518;239;28611;-70
2021/09/19 09:40:12;;;;;;;2.67;2.47;;;16.00;99.90;;;;;;496564;239;29328;-70
2021/09/19 09:42:13;;;;;;;3.10;2.90;;;16.00;99.90;;;;;;496579;239;29226;-70
2021/09/19 09:44:15;;;;;;;2.70;2.50;;;16.10;99.90;;;;;;496540;239;29388;-70
2021/09/19 09:46:16;;;;;;;3.27;2.97;;;16.10;99.90;;;;;;496544;239;28797;-70
2021/09/19 09:48:17;;;;;;;3.00;2.80;;;16.30;99.90;;;;;;496563;239;28914;-70
2021/09/19 09:50:18;;;;;;;2.57;2.47;;;16.30;99.90;;;;;;496576;239;28842;-72
2021/09/19 09:52:20;;;;;;;2.73;2.53;;;16.30;99.90;;;;;;496576;239;28656;-69
2021/09/19 09:54:22;;;;;;;3.00;2.80;;;16.30;99.90;;;;;;496582;239;28797;-69
2021/09/19 09:56:23;;;;;;;3.37;2.70;;;16.30;99.90;;;;;;496549;239;28900;-70
2021/09/19 09:58:24;;;;;;;3.33;2.67;;;16.60;99.90;;;;;;496522;239;28775;-72
2021/09/19 10:00:25;;;;;;;3.33;3.13;;;16.60;99.90;;;;;;496579;239;29232;-70
2021/09/19 10:02:27;;;;;;;3.03;2.83;;;16.60;99.90;;;;;;496595;239;29303;-69
2021/09/19 10:04:28;;;;;;;3.60;3.30;;;16.60;99.90;;;;;;496555;239;29276;-70
2021/09/19 10:06:30;;;;;;;3.80;3.10;;;16.40;99.90;;;;;;496540;239;29408;-72
2021/09/19 10:08:30;;;;;;;4.83;3.40;;;16.70;99.90;;;;;;496550;239;28767;-71
2021/09/19 10:10:44;;;;;;;4.13;3.33;;;16.70;99.90;;;;;;496569;239;28684;-71
2021/09/19 10:12:46;;;;;;;3.43;3.13;;;16.60;99.90;;;;;;496597;239;29305;-71
2021/09/19 10:14:46;;;;;;;2.70;2.50;;;16.70;99.90;;;;;;496576;239;29207;-71
2021/09/19 10:16:47;;;;;;;2.70;2.50;;;16.80;99.90;;;;;;496583;239;29296;-71
2021/09/19 10:18:49;;;;;;;2.90;2.70;;;17.10;99.90;;;;;;496582;239;30966;-71
2021/09/19 10:20:50;;;;;;;3.13;2.93;;;17.10;99.90;;;;;;496585;239;28771;-71
2021/09/19 10:22:51;;;;;;;3.07;2.87;;;17.10;99.90;;;;;;496482;239;28823;-71
2021/09/19 10:24:52;;;;;;;3.37;3.07;;;17.10;99.90;;;;;;496578;239;28893;-72
2021/09/19 10:26:54;;;;;;;2.77;2.57;;;17.30;99.90;;;;;;496579;239;28898;-72
2021/09/19 10:28:55;;;;;;;3.07;2.87;;;17.30;99.90;;;;;;496581;239;28802;-72
2021/09/19 10:30:56;;;;;;;2.43;2.33;;;17.30;99.90;;;;;;496580;239;28778;-71